Time;durP1;ratioP1;P1;durP2;ratioP2;P2;SDS_P1;SDS_P2;PMS_P1;PMS_P2;Temp;Humidity;BMP_temperature;BMP_pressure;BME280_temperature;BME280_humidity;BME280_pressure;Samples;Min_cycle;Max_cycle;Signal;HPM_P1;HPM_P2
2021/09/01 00:00:17;;;;;;;13.50;4.50;;;;;;;13.13;89.35;100513.04;111490;1205;22427;-64
2021/09/01 00:03:05;;;;;;;13.40;3.80;;;;;;;13.12;89.38;100512.81;111589;1204;25177;-64
2021/09/01 00:05:39;;;;;;;11.70;3.20;;;;;;;13.10;89.44;100523.80;111595;1204;22470;-64
2021/09/01 00:08:10;;;;;;;12.00;4.30;;;;;;;13.08;89.37;100527.09;111679;1203;23574;-64
2021/09/01 00:10:45;;;;;;;14.40;4.10;;;;;;;13.06;89.62;100525.88;111484;1204;24075;-64
2021/09/01 00:13:15;;;;;;;10.50;3.90;;;;;;;13.05;89.56;100533.00;111642;1203;22447;-63
2021/09/01 00:15:49;;;;;;;16.90;4.40;;;;;;;13.03;89.39;100532.84;111486;1204;22459;-64
2021/09/01 00:18:20;;;;;;;12.40;3.60;;;;;;;13.01;89.51;100523.88;111515;1203;22952;-64
2021/09/01 00:20:51;;;;;;;14.40;4.10;;;;;;;12.99;89.58;100523.02;111582;1204;22439;-63
2021/09/01 00:23:21;;;;;;;14.70;4.20;;;;;;;12.97;89.49;100532.98;111528;1204;22551;-64
2021/09/01 00:25:52;;;;;;;11.90;4.00;;;;;;;12.96;89.58;100534.33;111503;1206;22769;-63
2021/09/01 00:28:25;;;;;;;16.10;4.10;;;;;;;12.94;89.56;100540.27;111562;1203;23487;-63
2021/09/01 00:30:58;;;;;;;13.00;3.10;;;;;;;12.92;89.59;100545.54;111514;1203;22451;-64
2021/09/01 00:33:30;;;;;;;13.30;3.80;;;;;;;12.91;89.57;100548.02;111522;1204;25127;-64
2021/09/01 00:36:03;;;;;;;14.90;4.90;;;;;;;12.89;89.72;100553.09;111533;1205;24056;-64
2021/09/01 00:38:34;;;;;;;16.70;4.50;;;;;;;12.87;89.56;100553.45;111645;1205;22460;-64
2021/09/01 00:41:05;;;;;;;16.80;4.30;;;;;;;12.84;89.64;100558.96;111613;1205;25180;-64
2021/09/01 00:43:36;;;;;;;12.40;3.80;;;;;;;12.81;89.56;100558.17;111601;1205;22440;-64
2021/09/01 00:46:08;;;;;;;12.90;3.70;;;;;;;12.78;89.82;100563.06;111571;1204;22450;-64
2021/09/01 00:48:39;;;;;;;15.00;4.30;;;;;;;12.76;89.81;100568.02;111596;1205;25319;-64
2021/09/01 00:51:10;;;;;;;13.70;3.80;;;;;;;12.74;89.83;100566.30;111553;1204;22454;-64
2021/09/01 00:53:46;;;;;;;16.50;4.10;;;;;;;12.73;89.75;100569.96;111612;1203;24070;-64
2021/09/01 00:56:20;;;;;;;12.80;3.50;;;;;;;12.71;89.86;100571.15;111638;1204;22555;-64
2021/09/01 00:58:51;;;;;;;17.10;4.40;;;;;;;12.70;89.89;100569.30;111652;1204;22485;-64
2021/09/01 01:01:22;;;;;;;12.40;4.00;;;;;;;12.68;90.06;100571.56;111526;1204;24089;-64
2021/09/01 01:03:57;;;;;;;13.00;3.40;;;;;;;12.68;90.00;100575.73;111607;1203;22443;-64
2021/09/01 01:06:30;;;;;;;11.20;3.80;;;;;;;12.68;90.08;100577.55;111677;1204;24093;-65
2021/09/01 01:09:01;;;;;;;10.60;3.30;;;;;;;12.69;90.14;100576.81;111666;1206;22435;-64
2021/09/01 01:11:33;;;;;;;14.40;4.10;;;;;;;12.70;90.06;100583.41;111914;1204;25245;-64
2021/09/01 01:14:05;;;;;;;15.10;4.20;;;;;;;12.70;90.03;100581.67;111767;1206;22776;-65
2021/09/01 01:16:36;;;;;;;12.10;3.30;;;;;;;12.69;90.18;100585.59;111497;1204;22423;-64
2021/09/01 01:19:07;;;;;;;12.80;3.10;;;;;;;12.70;90.09;100586.62;111640;1205;25029;-62
2021/09/01 01:21:38;;;;;;;13.10;3.90;;;;;;;12.69;90.28;100593.23;111510;1203;22454;-63
2021/09/01 01:24:09;;;;;;;14.10;3.80;;;;;;;12.67;90.38;100594.26;111569;1205;23666;-63
2021/09/01 01:26:39;;;;;;;12.90;3.30;;;;;;;12.67;90.29;100595.58;111601;1205;26705;-63
2021/09/01 01:29:12;;;;;;;14.50;3.70;;;;;;;12.66;90.43;100590.02;111537;1205;25180;-63
2021/09/01 01:31:43;;;;;;;11.90;3.50;;;;;;;12.66;90.49;100592.77;111743;1204;22450;-64
2021/09/01 01:34:17;;;;;;;13.10;3.70;;;;;;;12.66;90.52;100595.36;111576;1204;24048;-64
2021/09/01 01:36:48;;;;;;;13.00;3.60;;;;;;;12.67;90.43;100603.93;111594;1206;24194;-64
2021/09/01 01:39:19;;;;;;;13.70;3.70;;;;;;;12.68;90.48;100603.89;111630;1201;24099;-64
2021/09/01 01:41:54;;;;;;;12.70;3.50;;;;;;;12.69;90.46;100605.60;111636;1204;22450;-64
2021/09/01 01:44:25;;;;;;;16.10;4.90;;;;;;;12.70;90.57;100607.65;111594;1204;26332;-64
2021/09/01 01:46:57;;;;;;;15.60;4.40;;;;;;;12.71;90.57;100604.34;111643;1204;23365;-64
2021/09/01 01:49:28;;;;;;;12.40;3.90;;;;;;;12.71;90.61;100608.22;111660;1204;22991;-64
2021/09/01 01:52:00;;;;;;;13.00;3.90;;;;;;;12.72;90.49;100613.64;111597;1205;23796;-64
2021/09/01 01:54:31;;;;;;;12.90;3.20;;;;;;;12.73;90.41;100616.45;111677;1205;26301;-64
2021/09/01 01:57:03;;;;;;;10.70;3.50;;;;;;;12.73;90.51;100607.86;112103;1205;22730;-64
2021/09/01 01:59:34;;;;;;;11.80;3.80;;;;;;;12.74;90.49;100611.90;111727;1206;22453;-64
2021/09/01 02:02:07;;;;;;;17.10;3.90;;;;;;;12.74;90.55;100608.94;111550;1204;24116;-64
2021/09/01 02:04:40;;;;;;;13.50;2.90;;;;;;;12.74;90.45;100607.66;111655;1204;24570;-64
2021/09/01 02:07:13;;;;;;;11.90;3.20;;;;;;;12.74;90.37;100607.29;111635;1205;24324;-63
2021/09/01 02:09:45;;;;;;;11.90;3.60;;;;;;;12.73;90.43;100614.37;111780;1206;22453;-64
2021/09/01 02:12:19;;;;;;;11.50;3.00;;;;;;;12.73;90.36;100620.59;111572;1205;24089;-64
2021/09/01 02:14:50;;;;;;;14.40;3.50;;;;;;;12.74;90.35;100628.90;111731;1204;22572;-64
2021/09/01 02:17:21;;;;;;;10.80;2.80;;;;;;;12.73;90.42;100626.23;111659;1205;22448;-64
2021/09/01 02:19:52;;;;;;;14.70;3.60;;;;;;;12.72;90.53;100626.64;111740;1205;25250;-64
2021/09/01 02:22:26;;;;;;;10.20;3.30;;;;;;;12.72;90.58;100631.82;111518;1203;24841;-64
2021/09/01 02:24:56;;;;;;;12.80;3.20;;;;;;;12.71;90.36;100630.64;111796;1205;25103;-64
2021/09/01 02:27:27;;;;;;;15.90;3.40;;;;;;;12.71;90.51;100632.57;111564;1204;24077;-64
2021/09/01 02:30:01;;;;;;;11.10;3.10;;;;;;;12.69;90.51;100635.14;111553;1204;22441;-64
2021/09/01 02:32:32;;;;;;;13.10;3.60;;;;;;;12.67;90.51;100637.09;111655;1198;100301;-75
2021/09/01 02:35:03;;;;;;;11.40;2.90;;;;;;;12.65;90.54;100635.27;112388;1203;22738;-79
2021/09/01 02:37:34;;;;;;;12.60;3.50;;;;;;;12.63;90.47;100641.91;112719;1203;22501;-79
2021/09/01 02:40:08;;;;;;;11.30;3.20;;;;;;;12.60;90.55;100645.11;112793;1202;22468;-79
2021/09/01 02:42:39;;;;;;;17.10;3.80;;;;;;;12.58;90.64;100643.96;112961;1203;22439;-79
2021/09/01 02:45:11;;;;;;;13.40;4.00;;;;;;;12.56;90.64;100636.60;112787;1202;24585;-79
2021/09/01 02:47:41;;;;;;;11.40;3.20;;;;;;;12.54;90.66;100637.68;112779;1202;22513;-78
2021/09/01 02:50:14;;;;;;;13.40;3.70;;;;;;;12.53;90.74;100643.66;112655;1202;26324;-79
2021/09/01 02:52:45;;;;;;;13.40;3.10;;;;;;;12.52;90.62;100644.01;112704;1202;24088;-78
2021/09/01 02:55:17;;;;;;;11.50;3.80;;;;;;;12.52;90.75;100646.61;112953;1202;22670;-79
2021/09/01 02:57:49;;;;;;;12.40;3.30;;;;;;;12.50;90.68;100644.06;113199;1202;24486;-79
2021/09/01 03:00:20;;;;;;;13.30;3.40;;;;;;;12.49;90.78;100636.77;112983;1202;22448;-79
2021/09/01 03:02:51;;;;;;;10.30;3.10;;;;;;;12.48;90.80;100642.96;112642;1202;25750;-78
2021/09/01 03:05:22;;;;;;;12.00;3.50;;;;;;;12.47;90.78;100645.65;112712;1203;25135;-78
2021/09/01 03:07:53;;;;;;;13.80;2.90;;;;;;;12.46;90.85;100645.14;112676;1202;22493;-78
2021/09/01 03:10:24;;;;;;;11.10;3.10;;;;;;;12.45;90.77;100649.48;112665;1202;23092;-78
2021/09/01 03:12:54;;;;;;;10.70;3.30;;;;;;;12.43;90.86;100649.02;112632;1202;22452;-79
2021/09/01 03:15:26;;;;;;;15.20;2.90;;;;;;;12.40;90.82;100652.84;112692;1202;22528;-78
2021/09/01 03:17:57;;;;;;;12.10;3.40;;;;;;;12.36;90.81;100655.19;112645;1203;22452;-78
2021/09/01 03:20:28;;;;;;;14.00;3.40;;;;;;;12.34;90.83;100657.27;112950;1202;22439;-79
2021/09/01 03:22:58;;;;;;;15.50;3.60;;;;;;;12.32;90.76;100660.34;113213;1203;22455;-76
2021/09/01 03:25:31;;;;;;;13.70;3.70;;;;;;;12.28;91.11;100653.59;112765;1202;23642;-79
2021/09/01 03:28:03;;;;;;;11.40;3.00;;;;;;;12.25;91.09;100662.70;112844;1202;22452;-78
2021/09/01 03:30:35;;;;;;;14.10;3.50;;;;;;;12.22;91.09;100665.10;112860;1202;25052;-78
2021/09/01 03:33:06;;;;;;;17.90;3.70;;;;;;;12.20;91.39;100672.70;112802;1203;22435;-78
2021/09/01 03:35:37;;;;;;;15.60;3.50;;;;;;;12.18;91.29;100669.61;113075;1203;24065;-78
2021/09/01 03:38:07;;;;;;;13.30;3.50;;;;;;;12.17;91.52;100674.77;112741;1203;22458;-79
2021/09/01 03:40:40;;;;;;;14.10;4.20;;;;;;;12.15;91.59;100676.63;112705;1202;25080;-78
2021/09/01 03:43:10;;;;;;;12.00;3.90;;;;;;;12.14;91.42;100674.92;112723;1202;24135;-79
2021/09/01 03:45:41;;;;;;;13.50;4.30;;;;;;;12.12;91.64;100672.23;113238;1202;25733;-79
2021/09/01 03:48:14;;;;;;;14.40;4.70;;;;;;;12.10;91.56;100674.84;113607;1202;22436;-79
2021/09/01 03:50:47;;;;;;;15.00;4.40;;;;;;;12.08;91.65;100669.87;113668;1203;24053;-79
2021/09/01 03:53:19;;;;;;;13.30;3.20;;;;;;;12.06;91.80;100673.41;113652;1202;22561;-79
2021/09/01 03:55:50;;;;;;;15.90;4.50;;;;;;;12.05;91.65;100671.49;113342;1203;24231;-79
2021/09/01 03:58:23;;;;;;;14.60;5.10;;;;;;;12.03;91.62;100674.08;113250;1202;22468;-79
2021/09/01 04:00:54;;;;;;;19.30;5.00;;;;;;;12.01;91.76;100677.15;113721;1203;22414;-79
2021/09/01 04:03:27;;;;;;;13.20;3.80;;;;;;;12.00;91.79;100683.14;113239;1202;23225;-79
2021/09/01 04:05:59;;;;;;;11.50;4.00;;;;;;;11.98;91.96;100686.00;113180;1203;25195;-79
2021/09/01 04:08:29;;;;;;;15.80;3.90;;;;;;;11.97;92.08;100689.95;113178;1203;22446;-79
2021/09/01 04:11:00;;;;;;;17.00;4.60;;;;;;;11.98;92.19;100687.37;113245;1202;23737;-79
2021/09/01 04:13:33;;;;;;;16.30;5.20;;;;;;;11.99;92.28;100692.42;113581;1202;24096;-79
2021/09/01 04:16:04;;;;;;;13.30;3.80;;;;;;;11.99;92.31;100693.92;113573;1202;22421;-79
2021/09/01 04:18:36;;;;;;;11.40;4.30;;;;;;;12.01;92.24;100695.86;113184;1202;22556;-79
2021/09/01 04:21:06;;;;;;;16.30;5.10;;;;;;;12.01;92.47;100691.85;113145;1195;25082;-79
2021/09/01 04:23:37;;;;;;;14.00;4.00;;;;;;;12.01;92.28;100692.82;113182;1202;24242;-79
2021/09/01 04:26:08;;;;;;;12.60;4.30;;;;;;;12.01;92.53;100700.15;113218;1203;25081;-79
2021/09/01 04:28:40;;;;;;;12.50;4.30;;;;;;;12.01;92.35;100701.52;112822;1203;22480;-78
2021/09/01 04:31:11;;;;;;;13.90;4.50;;;;;;;12.01;92.43;100705.28;112697;1203;23318;-79
2021/09/01 04:33:42;;;;;;;14.30;3.40;;;;;;;12.01;92.34;100710.56;112606;1204;22548;-79
2021/09/01 04:36:12;;;;;;;15.20;4.60;;;;;;;12.01;92.54;100718.31;113009;1204;22435;-79
2021/09/01 04:38:43;;;;;;;17.00;5.10;;;;;;;12.02;92.46;100714.27;113140;1202;22431;-79
2021/09/01 04:41:14;;;;;;;12.60;4.20;;;;;;;12.02;92.42;100712.17;113228;1202;24119;-79
2021/09/01 04:43:45;;;;;;;17.80;5.30;;;;;;;12.02;92.57;100716.96;113515;1204;22441;-78
2021/09/01 04:46:16;;;;;;;15.00;5.30;;;;;;;12.01;92.47;100713.23;112836;1201;23117;-77
2021/09/01 04:48:47;;;;;;;13.00;5.00;;;;;;;12.02;92.47;100713.91;112667;1203;25418;-77
2021/09/01 04:51:39;;;;;;;14.80;5.20;;;;;;;12.02;92.38;100712.23;112614;1203;22452;-77
2021/09/01 04:54:13;;;;;;;14.10;4.50;;;;;;;12.03;92.56;100712.54;112479;1202;24167;-76
2021/09/01 04:56:43;;;;;;;15.20;5.10;;;;;;;12.04;92.66;100721.52;112405;1204;22440;-76
2021/09/01 04:59:14;;;;;;;15.60;5.10;;;;;;;12.05;92.79;100724.32;112383;1203;22437;-77
2021/09/01 05:01:45;;;;;;;15.20;5.00;;;;;;;12.07;92.68;100724.39;112609;1202;22455;-76
2021/09/01 05:04:16;;;;;;;17.30;6.20;;;;;;;12.08;92.79;100729.11;112531;1204;22377;-75
2021/09/01 05:06:47;;;;;;;15.10;4.60;;;;;;;12.11;92.80;100722.89;112702;1202;22440;-78
2021/09/01 05:09:18;;;;;;;16.00;5.60;;;;;;;12.14;92.91;100731.55;112734;1202;24115;-77
2021/09/01 05:11:51;;;;;;;12.80;4.80;;;;;;;12.14;92.74;100728.17;112761;1203;25209;-78
2021/09/01 05:14:22;;;;;;;17.10;5.80;;;;;;;12.15;92.73;100731.23;112644;1202;22529;-78
2021/09/01 05:16:54;;;;;;;15.30;5.50;;;;;;;12.16;92.63;100723.92;112684;1205;23206;-77
2021/09/01 05:19:28;;;;;;;15.80;4.30;;;;;;;12.17;92.56;100719.05;113020;1202;22394;-78
2021/09/01 05:22:06;;;;;;;12.60;4.70;;;;;;;12.18;92.71;100725.42;112743;1204;22551;-77
2021/09/01 05:25:03;;;;;;;13.10;4.80;;;;;;;12.19;92.84;100743.67;112641;1203;22469;-78
2021/09/01 05:27:36;;;;;;;12.00;3.90;;;;;;;12.22;92.82;100743.96;112808;1204;25196;-78
2021/09/01 05:30:11;;;;;;;13.80;4.90;;;;;;;12.23;92.74;100737.08;112830;1204;22437;-77
2021/09/01 05:32:44;;;;;;;16.20;4.30;;;;;;;12.26;92.97;100747.73;112833;1203;22499;-77
2021/09/01 05:35:19;;;;;;;16.20;4.90;;;;;;;12.29;92.92;100743.88;112728;1203;25335;-77
2021/09/01 05:37:51;;;;;;;15.00;5.00;;;;;;;12.33;92.75;100743.59;112711;1203;22437;-78
2021/09/01 05:40:23;;;;;;;18.80;4.90;;;;;;;12.36;92.70;100749.29;112689;1203;25147;-78
2021/09/01 05:42:54;;;;;;;12.50;3.90;;;;;;;12.38;92.65;100749.98;112628;1202;22449;-77
2021/09/01 05:45:29;;;;;;;15.80;4.30;;;;;;;12.38;92.72;100751.64;112662;1204;24013;-78
2021/09/01 05:48:02;;;;;;;15.60;4.30;;;;;;;12.40;92.48;100754.36;112868;1203;22556;-77
2021/09/01 05:50:34;;;;;;;14.10;4.00;;;;;;;12.39;92.48;100753.45;112943;1204;25170;-78
2021/09/01 05:53:05;;;;;;;14.60;4.50;;;;;;;12.38;92.42;100752.45;112812;1204;24072;-78
2021/09/01 05:55:43;;;;;;;17.60;4.90;;;;;;;12.38;92.62;100760.54;112746;1203;24097;-78
2021/09/01 05:58:17;;;;;;;11.70;4.30;;;;;;;12.39;92.57;100768.66;112675;1203;22798;-78
2021/09/01 06:00:56;;;;;;;18.90;5.20;;;;;;;12.41;92.58;100766.36;112616;1204;25203;-76
2021/09/01 06:03:33;;;;;;;11.80;3.90;;;;;;;12.46;92.94;100764.20;112783;1201;25317;-78
2021/09/01 06:06:07;;;;;;;13.30;4.20;;;;;;;12.52;92.97;100759.98;112768;1202;22446;-77
2021/09/01 06:08:39;;;;;;;13.20;3.90;;;;;;;12.58;92.99;100765.30;112842;1204;24097;-78
2021/09/01 06:11:13;;;;;;;15.20;3.80;;;;;;;12.65;93.13;100767.93;112806;1202;23664;-78
2021/09/01 06:13:45;;;;;;;17.60;4.70;;;;;;;12.70;92.66;100770.58;112885;1202;22500;-77
2021/09/01 06:16:18;;;;;;;10.70;3.60;;;;;;;12.73;92.55;100771.63;112710;1201;25110;-78
2021/09/01 06:18:49;;;;;;;14.70;5.10;;;;;;;12.76;92.34;100774.36;112719;1202;22450;-78
2021/09/01 06:21:20;;;;;;;11.60;3.50;;;;;;;12.79;92.44;100769.98;112682;1202;25127;-78
2021/09/01 06:23:53;;;;;;;12.70;4.20;;;;;;;12.82;92.47;100773.00;112676;1204;22533;-77
2021/09/01 06:26:24;;;;;;;13.30;4.00;;;;;;;12.85;92.31;100777.42;112750;1202;22452;-77
2021/09/01 06:28:55;;;;;;;14.60;3.80;;;;;;;12.86;92.13;100782.95;112721;1204;25167;-78
2021/09/01 06:31:32;;;;;;;11.50;3.50;;;;;;;12.89;92.28;100786.54;112739;1202;22441;-77
2021/09/01 06:34:03;;;;;;;14.60;4.20;;;;;;;12.95;92.25;100779.30;112768;1204;22466;-78
2021/09/01 06:36:34;;;;;;;12.70;3.40;;;;;;;13.03;92.26;100781.48;112805;1202;22737;-78
2021/09/01 06:39:05;;;;;;;12.60;3.40;;;;;;;13.10;91.94;100787.48;112729;1202;24019;-77
2021/09/01 06:41:36;;;;;;;11.90;3.00;;;;;;;13.18;91.89;100790.48;112903;1205;23476;-77
2021/09/01 06:44:08;;;;;;;13.90;3.70;;;;;;;13.25;91.56;100788.25;113115;1202;25196;-78
2021/09/01 06:46:40;;;;;;;20.10;4.60;;;;;;;13.31;91.51;100783.25;112958;1202;24077;-78
2021/09/01 06:49:11;;;;;;;13.30;3.40;;;;;;;13.37;91.34;100781.53;112764;1202;22470;-77
2021/09/01 06:51:45;;;;;;;13.90;3.20;;;;;;;13.44;91.41;100783.73;112799;1202;25215;-78
2021/09/01 06:54:17;;;;;;;10.60;3.00;;;;;;;13.51;91.43;100788.18;113074;1203;23725;-78
2021/09/01 06:56:47;;;;;;;15.20;3.40;;;;;;;13.60;90.99;100787.77;112752;1201;22470;-78
2021/09/01 06:59:18;;;;;;;10.50;3.60;;;;;;;13.71;90.83;100792.05;112726;1201;22461;-78
2021/09/01 07:01:50;;;;;;;9.10;2.70;;;;;;;13.79;90.62;100792.43;112787;1206;22458;-78
2021/09/01 07:04:20;;;;;;;12.60;2.80;;;;;;;13.86;90.54;100790.73;112702;1197;22457;-78
2021/09/01 07:06:54;;;;;;;12.40;3.50;;;;;;;13.92;90.55;100793.64;112800;1202;25214;-78
2021/09/01 07:09:25;;;;;;;18.20;3.30;;;;;;;13.98;90.43;100801.27;112817;1202;22447;-80
2021/09/01 07:11:56;;;;;;;9.10;2.60;;;;;;;14.06;90.58;100800.84;112899;1205;22536;-78
2021/09/01 07:14:27;;;;;;;13.20;4.30;;;;;;;14.16;90.61;100807.50;112915;1204;25228;-78
2021/09/01 07:16:58;;;;;;;12.10;3.30;;;;;;;14.24;89.98;100808.43;112739;1203;22439;-78
2021/09/01 07:19:29;;;;;;;12.80;2.90;;;;;;;14.33;89.52;100812.72;112888;1200;22445;-78
2021/09/01 07:22:01;;;;;;;11.50;3.00;;;;;;;14.41;88.85;100811.54;112962;1202;22441;-79
2021/09/01 07:24:32;;;;;;;9.40;2.70;;;;;;;14.46;88.21;100810.27;112997;1206;22516;-78
2021/09/01 07:27:03;;;;;;;12.50;2.70;;;;;;;14.48;87.69;100811.41;112842;1206;24586;-79
2021/09/01 07:29:34;;;;;;;12.60;3.60;;;;;;;14.49;87.60;100808.21;112813;1206;23883;-78
2021/09/01 07:32:05;;;;;;;14.30;3.00;;;;;;;14.54;88.07;100800.45;112888;1206;22452;-78
2021/09/01 07:34:39;;;;;;;11.80;2.60;;;;;;;14.61;88.31;100804.41;112884;1206;23264;-78
2021/09/01 07:37:12;;;;;;;11.30;3.20;;;;;;;14.70;87.64;100805.70;112840;1205;25682;-78
2021/09/01 07:39:44;;;;;;;11.60;3.00;;;;;;;14.81;88.18;100806.05;112769;1202;23167;-78
2021/09/01 07:42:16;;;;;;;12.50;2.70;;;;;;;14.91;87.43;100810.52;112995;1205;22449;-78
2021/09/01 07:44:47;;;;;;;8.00;2.30;;;;;;;14.90;85.59;100816.70;112894;1203;22567;-78
2021/09/01 07:47:18;;;;;;;10.00;3.00;;;;;;;14.85;85.63;100817.15;112931;1203;22449;-79
2021/09/01 07:52:41;;;;;;;10.80;3.10;;;;;;;14.84;85.21;100812.08;112764;1205;22472;-78
2021/09/01 07:55:14;;;;;;;9.00;2.60;;;;;;;14.89;86.00;100816.23;112786;1202;22430;-79
2021/09/01 07:57:45;;;;;;;9.60;2.80;;;;;;;14.95;85.91;100822.42;113066;1205;24059;-78
2021/09/01 08:00:18;;;;;;;9.70;2.60;;;;;;;15.03;85.61;100822.50;112897;1204;22510;-78
2021/09/01 08:02:50;;;;;;;7.70;2.00;;;;;;;15.09;85.31;100822.36;112892;1206;22604;-79
2021/09/01 08:05:25;;;;;;;9.80;2.60;;;;;;;15.18;85.16;100820.09;112879;1195;22469;-77
2021/09/01 08:07:56;;;;;;;14.80;3.30;;;;;;;15.30;84.70;100824.77;112725;1200;24079;-80
2021/09/01 08:10:29;;;;;;;9.70;2.70;;;;;;;15.39;84.80;100826.83;112802;1206;25220;-77
2021/09/01 08:13:00;;;;;;;10.30;2.70;;;;;;;15.48;85.34;100829.81;112812;1204;22396;-77
2021/09/01 08:15:52;;;;;;;7.70;2.40;;;;;;;15.57;84.38;100834.85;112974;1206;25209;-77
2021/09/01 08:18:26;;;;;;;8.50;2.10;;;;;;;15.57;83.68;100842.63;112998;1206;22501;-78
2021/09/01 08:20:56;;;;;;;13.30;2.80;;;;;;;15.51;82.54;100837.26;112987;1196;22533;-78
2021/09/01 08:23:27;;;;;;;9.00;2.60;;;;;;;15.46;82.43;100844.73;112953;1202;22460;-78
2021/09/01 08:25:58;;;;;;;9.10;2.70;;;;;;;15.36;82.26;100840.42;112920;1202;22897;-78
2021/09/01 08:28:30;;;;;;;9.10;2.30;;;;;;;15.33;82.86;100843.67;113029;1202;23751;-78
2021/09/01 08:31:03;;;;;;;13.60;2.90;;;;;;;15.40;82.90;100840.92;112997;1202;25724;-78
2021/09/01 08:33:34;;;;;;;9.70;2.30;;;;;;;15.51;82.99;100845.08;112897;1202;22773;-77
2021/09/01 08:36:06;;;;;;;10.20;2.30;;;;;;;15.64;83.52;100854.04;112769;1202;22452;-77
2021/09/01 08:38:37;;;;;;;9.70;2.60;;;;;;;15.68;81.96;100857.50;112743;1202;22973;-77
2021/09/01 08:41:10;;;;;;;9.20;2.30;;;;;;;15.60;81.24;100860.40;112760;1202;24102;-78
2021/09/01 08:43:40;;;;;;;9.60;2.40;;;;;;;15.53;81.45;100861.27;112692;1195;22509;-78
2021/09/01 08:46:13;;;;;;;9.50;2.60;;;;;;;15.52;81.96;100860.60;112658;1202;22434;-78
2021/09/01 08:48:45;;;;;;;9.20;2.20;;;;;;;15.58;82.28;100859.67;112724;1202;22513;-78
2021/09/01 08:51:17;;;;;;;10.50;2.60;;;;;;;15.65;81.32;100861.41;112735;1202;23998;-78
2021/09/01 08:53:51;;;;;;;8.20;2.30;;;;;;;15.73;80.81;100860.25;112651;1202;22483;-81
2021/09/01 08:56:24;;;;;;;9.70;2.10;;;;;;;15.82;80.11;100858.69;113049;1202;23075;-78
2021/09/01 08:58:55;;;;;;;9.90;2.30;;;;;;;15.90;79.92;100862.23;112718;1206;24076;-77
2021/09/01 09:01:46;;;;;;;10.50;2.20;;;;;;;16.00;80.29;100862.56;112741;1205;22574;-78
2021/09/01 09:04:20;;;;;;;12.70;2.70;;;;;;;16.03;79.22;100867.80;112665;1202;25095;-78
2021/09/01 09:06:53;;;;;;;9.40;3.00;;;;;;;16.05;80.51;100865.96;112821;1202;25165;-78
2021/09/01 09:09:28;;;;;;;7.60;1.90;;;;;;;16.08;80.42;100863.16;113058;1202;22405;-78
2021/09/01 09:12:02;;;;;;;8.70;2.10;;;;;;;16.09;79.58;100867.53;113037;1202;22440;-79
2021/09/01 09:14:36;;;;;;;11.30;1.90;;;;;;;16.08;79.38;100869.83;112830;1205;22499;-78
2021/09/01 09:17:14;;;;;;;7.40;1.80;;;;;;;16.11;78.94;100871.54;113496;1202;22439;-78
2021/09/01 09:19:52;;;;;;;9.30;2.30;;;;;;;16.14;78.46;100868.29;112972;1202;24154;-78
2021/09/01 09:22:27;;;;;;;10.40;2.50;;;;;;;16.20;77.31;100869.86;112896;1202;22463;-78
2021/09/01 09:25:07;;;;;;;8.20;2.10;;;;;;;16.24;78.63;100866.70;113104;1202;22687;-79
2021/09/01 09:27:42;;;;;;;6.30;1.70;;;;;;;16.37;78.34;100867.61;113058;1202;22483;-79
2021/09/01 09:30:31;;;;;;;8.30;2.00;;;;;;;16.52;77.70;100866.30;113096;1202;22463;-79
2021/09/01 09:33:05;;;;;;;8.80;1.90;;;;;;;16.66;77.33;100863.78;112962;1206;22470;-78
2021/09/01 09:35:59;;;;;;;10.40;2.30;;;;;;;16.65;76.79;100869.30;112838;1203;22514;-77
2021/09/01 09:38:38;;;;;;;5.50;1.50;;;;;;;16.59;76.15;100874.36;113040;1200;23133;-78
2021/09/01 09:41:21;;;;;;;7.50;1.80;;;;;;;16.57;74.75;100873.36;112978;1202;22447;-78
2021/09/01 09:43:54;;;;;;;7.10;1.60;;;;;;;16.56;74.21;100873.98;112756;1202;24048;-78
2021/09/01 09:46:26;;;;;;;7.40;2.30;;;;;;;16.57;74.19;100878.49;112850;1205;22486;-78
2021/09/01 09:49:09;;;;;;;7.50;1.70;;;;;;;16.61;74.73;100878.10;112734;1202;23119;-78
2021/09/01 09:51:44;;;;;;;8.80;2.30;;;;;;;16.67;75.25;100876.79;113134;1204;22461;-78
2021/09/01 09:54:21;;;;;;;10.20;1.80;;;;;;;16.72;74.24;100880.25;113422;1202;22433;-78
2021/09/01 09:57:07;;;;;;;7.20;1.80;;;;;;;16.78;74.62;100888.02;112918;1202;22568;-78
2021/09/01 09:59:39;;;;;;;5.50;1.60;;;;;;;16.85;73.79;100891.67;113034;1206;22928;-78
2021/09/01 10:02:11;;;;;;;5.50;1.60;;;;;;;16.87;74.04;100892.71;112987;1202;22480;-79
2021/09/01 10:04:43;;;;;;;7.50;2.00;;;;;;;16.87;74.30;100899.95;113067;1205;22439;-79
2021/09/01 10:07:16;;;;;;;8.20;2.00;;;;;;;16.85;73.62;100899.23;113023;1203;25085;-79
2021/09/01 10:09:47;;;;;;;6.70;1.70;;;;;;;16.87;73.64;100895.34;113215;1205;24038;-79
2021/09/01 10:12:18;;;;;;;7.10;1.70;;;;;;;16.96;72.47;100893.27;113174;1206;22472;-79
2021/09/01 10:14:51;;;;;;;7.90;1.60;;;;;;;17.02;71.56;100884.66;113093;1206;24176;-79
2021/09/01 10:17:27;;;;;;;8.90;1.70;;;;;;;17.06;72.91;100885.50;113104;1202;22438;-79
2021/09/01 10:19:58;;;;;;;9.00;2.10;;;;;;;17.06;72.27;100888.43;113332;1203;22860;-79
2021/09/01 10:22:29;;;;;;;10.90;2.30;;;;;;;17.03;72.36;100899.60;113175;1202;24410;-79
2021/09/01 10:25:02;;;;;;;6.50;1.70;;;;;;;16.96;71.09;100897.73;112914;1205;22484;-79
2021/09/01 10:27:36;;;;;;;7.90;1.60;;;;;;;16.93;72.10;100891.91;113001;1202;22440;-79
2021/09/01 10:30:09;;;;;;;9.70;1.90;;;;;;;16.98;71.21;100888.34;112737;1202;22448;-79
2021/09/01 10:32:46;;;;;;;7.70;1.80;;;;;;;17.08;71.58;100888.94;112732;1202;25219;-79
2021/09/01 10:35:37;;;;;;;9.20;2.00;;;;;;;17.18;71.37;100889.08;112752;1202;24057;-80
2021/09/01 10:38:07;;;;;;;7.20;1.50;;;;;;;17.30;70.54;100887.45;112860;1202;22436;-79
2021/09/01 10:41:04;;;;;;;9.80;1.80;;;;;;;17.41;69.69;100878.70;113052;1202;22484;-79
2021/09/01 10:43:35;;;;;;;10.80;1.90;;;;;;;17.51;69.28;100881.50;112979;1203;22470;-78
2021/09/01 10:46:06;;;;;;;8.90;2.00;;;;;;;17.56;70.10;100884.02;112960;1206;24049;-77
2021/09/01 10:48:59;;;;;;;6.90;1.60;;;;;;;17.54;68.43;100888.86;113047;1202;22459;-78
2021/09/01 10:51:31;;;;;;;8.50;1.50;;;;;;;17.47;68.42;100890.63;112959;1202;22492;-79
2021/09/01 10:54:29;;;;;;;9.90;1.90;;;;;;;17.46;69.14;100885.17;113055;1202;24075;-79
2021/09/01 10:57:02;;;;;;;7.30;1.50;;;;;;;17.54;69.34;100886.70;113148;1202;24139;-79
2021/09/01 10:59:40;;;;;;;6.90;1.30;;;;;;;17.60;67.36;100887.84;112931;1203;24068;-79
2021/09/01 11:02:16;;;;;;;6.50;1.40;;;;;;;17.56;68.05;100887.41;113124;1202;25210;-79
2021/09/01 11:04:53;;;;;;;7.00;1.40;;;;;;;17.58;67.60;100891.69;113013;1200;22426;-78
2021/09/01 11:07:27;;;;;;;7.60;1.50;;;;;;;17.64;67.67;100893.17;113050;1203;22569;-80
2021/09/01 11:10:01;;;;;;;9.00;1.80;;;;;;;17.65;67.59;100894.35;113067;1202;22430;-78
2021/09/01 11:12:41;;;;;;;6.90;1.50;;;;;;;17.67;67.51;100897.08;113009;1202;24261;-78
2021/09/01 11:15:13;;;;;;;7.80;1.50;;;;;;;17.70;66.33;100905.50;113044;1205;25242;-78
2021/09/01 11:17:44;;;;;;;7.60;1.40;;;;;;;17.77;67.52;100896.73;112736;1201;22448;-78
2021/09/01 11:20:15;;;;;;;5.80;1.30;;;;;;;17.82;66.38;100904.58;112712;1202;24617;-78
2021/09/01 11:22:47;;;;;;;8.10;1.30;;;;;;;17.82;66.93;100915.26;112722;1202;22431;-79
2021/09/01 11:25:20;;;;;;;7.90;1.60;;;;;;;17.88;67.17;100913.25;112732;1202;22506;-78
2021/09/01 11:27:57;;;;;;;7.80;1.50;;;;;;;18.01;66.60;100916.02;112729;1202;22528;-78
2021/09/01 11:30:37;;;;;;;8.60;1.30;;;;;;;18.11;67.06;100912.89;112761;1204;22930;-79
2021/09/01 11:33:14;;;;;;;5.10;1.20;;;;;;;18.13;65.51;100923.46;112780;1200;22518;-78
2021/09/01 11:36:28;;;;;;;7.10;1.50;;;;;;;18.10;65.04;100915.61;112769;1202;24067;-79
2021/09/01 11:39:00;;;;;;;5.80;1.20;;;;;;;18.10;65.87;100915.40;112676;1202;25247;-79
2021/09/01 11:41:32;;;;;;;8.70;1.60;;;;;;;18.18;65.47;100917.71;112811;1202;25152;-78